Time;durP1;ratioP1;P1;durP2;ratioP2;P2;SDS_P1;SDS_P2;PMS_P1;PMS_P2;Temp;Humidity;BMP_temperature;BMP_pressure;BME280_temperature;BME280_humidity;BME280_pressure;Samples;Min_cycle;Max_cycle;Signal;HPM_P1;HPM_P2
2022/05/03 03:04:06;;;;;;;1.58;1.48;;;21.10;47.60;;;;;;4911357;28;45784;-60
2022/05/03 03:06:33;;;;;;;1.90;1.67;;;21.10;47.60;;;;;;4945073;28;45883;-60
2022/05/03 03:09:00;;;;;;;1.60;1.50;;;21.10;47.60;;;;;;4939892;28;45944;-60
2022/05/03 03:11:31;;;;;;;1.88;1.77;;;21.00;47.50;;;;;;4956064;28;45302;-60
2022/05/03 03:14:15;;;;;;;1.92;1.83;;;21.10;47.60;;;;;;4954666;28;45592;-60
2022/05/03 03:16:53;;;;;;;2.38;2.03;;;21.10;47.60;;;;;;4936712;28;45196;-59
2022/05/03 03:19:38;;;;;;;2.10;1.90;;;21.10;47.60;;;;;;4922941;28;46183;-60
2022/05/03 03:22:07;;;;;;;1.90;1.80;;;21.00;47.60;;;;;;4955850;28;45537;-57
2022/05/03 03:24:32;;;;;;;1.58;1.48;;;21.10;47.60;;;;;;4921624;28;45331;-61
2022/05/03 03:27:01;;;;;;;1.60;1.50;;;21.00;47.50;;;;;;4929548;28;46225;-60
2022/05/03 03:29:26;;;;;;;1.88;1.60;;;21.00;47.60;;;;;;4946455;28;45327;-60
2022/05/03 03:31:53;;;;;;;2.03;1.85;;;21.00;47.60;;;;;;4920929;28;44786;-59
2022/05/03 03:34:19;;;;;;;2.15;1.95;;;21.00;47.50;;;;;;4937721;28;44872;-58
2022/05/03 03:36:45;;;;;;;1.65;1.55;;;21.00;47.60;;;;;;4938361;28;45868;-61
2022/05/03 03:39:10;;;;;;;2.00;1.85;;;21.00;47.60;;;;;;4939824;28;46668;-59
2022/05/03 03:41:36;;;;;;;2.05;1.90;;;21.00;47.50;;;;;;4957453;28;45324;-58
2022/05/03 03:44:05;;;;;;;1.88;1.75;;;21.00;47.50;;;;;;4926658;28;45772;-57
2022/05/03 03:46:31;;;;;;;1.85;1.67;;;21.00;47.50;;;;;;4923801;28;45914;-59
2022/05/03 03:48:57;;;;;;;2.00;1.90;;;21.00;47.50;;;;;;4925271;28;46215;-59
2022/05/03 03:51:22;;;;;;;2.88;1.88;;;21.00;47.50;;;;;;4924365;28;45205;-60
2022/05/03 03:53:48;;;;;;;1.70;1.60;;;21.00;47.60;;;;;;4925876;28;45142;-60
2022/05/03 03:56:14;;;;;;;1.80;1.70;;;21.00;47.60;;;;;;4932543;28;44722;-62
2022/05/03 03:58:40;;;;;;;1.70;1.60;;;21.00;47.60;;;;;;4944841;28;46090;-60
2022/05/03 04:01:05;;;;;;;2.53;1.70;;;21.00;47.60;;;;;;4931641;28;45272;-60
2022/05/03 04:03:31;;;;;;;1.83;1.73;;;21.00;47.60;;;;;;4936535;28;44896;-61
2022/05/03 04:05:57;;;;;;;2.20;2.00;;;21.00;47.60;;;;;;4943955;28;45807;-61
2022/05/03 04:08:24;;;;;;;1.55;1.45;;;21.00;47.60;;;;;;4939514;28;45654;-61
2022/05/03 04:10:49;;;;;;;1.75;1.65;;;21.00;47.60;;;;;;4943887;28;45288;-59
2022/05/03 04:13:15;;;;;;;1.73;1.63;;;21.00;47.60;;;;;;4939238;28;45024;-61
2022/05/03 04:15:41;;;;;;;1.80;1.70;;;21.00;47.60;;;;;;4928407;28;46105;-61
2022/05/03 04:18:10;;;;;;;1.92;1.60;;;21.00;47.70;;;;;;4939856;28;46389;-59
2022/05/03 04:20:35;;;;;;;2.00;1.60;;;21.00;47.70;;;;;;4939763;28;45244;-59
2022/05/03 04:23:01;;;;;;;1.70;1.60;;;21.00;47.60;;;;;;4938770;28;45713;-61
2022/05/03 04:25:27;;;;;;;1.67;1.58;;;21.00;47.60;;;;;;4937290;28;45795;-59
2022/05/03 04:27:52;;;;;;;2.40;1.77;;;20.90;47.60;;;;;;4937762;28;45320;-61
2022/05/03 04:30:18;;;;;;;1.70;1.60;;;20.90;47.60;;;;;;4939559;28;45033;-60
2022/05/03 04:32:44;;;;;;;1.80;1.70;;;20.90;47.70;;;;;;4937974;28;44755;-60
2022/05/03 04:35:09;;;;;;;1.70;1.60;;;20.90;47.70;;;;;;4939215;28;44719;-60
2022/05/03 04:37:35;;;;;;;1.63;1.52;;;21.00;47.70;;;;;;4937168;28;45772;-61
2022/05/03 04:40:01;;;;;;;1.65;1.38;;;20.90;47.60;;;;;;4935208;28;45587;-61
2022/05/03 04:42:26;;;;;;;2.33;1.52;;;21.00;47.70;;;;;;4937299;28;45329;-59
2022/05/03 04:44:52;;;;;;;1.63;1.52;;;20.90;47.70;;;;;;4946351;28;45497;-61
2022/05/03 04:47:17;;;;;;;1.80;1.70;;;20.90;47.70;;;;;;4937365;28;46697;-60
2022/05/03 04:49:43;;;;;;;3.30;1.83;;;21.00;47.70;;;;;;4938551;28;44997;-60
2022/05/03 04:52:09;;;;;;;1.65;1.52;;;20.90;47.70;;;;;;4935224;28;45411;-62
2022/05/03 04:54:36;;;;;;;1.60;1.50;;;21.00;47.70;;;;;;4918435;28;45233;-60
2022/05/03 04:57:03;;;;;;;1.90;1.58;;;21.00;47.70;;;;;;4932895;28;48568;-60
2022/05/03 04:59:28;;;;;;;1.77;1.63;;;20.90;47.70;;;;;;4944140;28;44947;-61
2022/05/03 05:01:54;;;;;;;1.65;1.55;;;21.00;47.70;;;;;;4949941;28;45737;-60
2022/05/03 05:04:20;;;;;;;1.98;1.50;;;21.00;47.70;;;;;;4931311;28;45115;-59
2022/05/03 05:06:45;;;;;;;1.80;1.70;;;20.90;47.70;;;;;;4941249;28;45343;-61
2022/05/03 05:09:11;;;;;;;1.55;1.45;;;20.90;47.70;;;;;;4940421;28;45253;-59
2022/05/03 05:11:38;;;;;;;1.60;1.48;;;20.90;47.70;;;;;;4937395;28;45291;-61
2022/05/03 05:14:03;;;;;;;1.60;1.50;;;20.90;47.70;;;;;;4957798;28;45867;-60
2022/05/03 05:16:29;;;;;;;1.50;1.40;;;20.90;47.70;;;;;;4940456;28;46491;-60
2022/05/03 05:18:54;;;;;;;1.73;1.60;;;20.90;47.70;;;;;;4922068;28;45538;-57
2022/05/03 05:21:20;;;;;;;1.58;1.48;;;20.90;47.70;;;;;;4956104;28;45595;-60
2022/05/03 05:23:46;;;;;;;1.83;1.73;;;21.00;47.70;;;;;;4940159;28;45555;-58
2022/05/03 05:26:11;;;;;;;1.85;1.70;;;21.00;47.60;;;;;;4931644;28;45250;-59
2022/05/03 05:28:37;;;;;;;1.60;1.50;;;21.00;47.50;;;;;;4940797;28;45665;-60
2022/05/03 05:31:02;;;;;;;1.77;1.58;;;21.10;47.50;;;;;;4956962;28;44800;-60
2022/05/03 05:33:28;;;;;;;2.22;1.98;;;21.10;47.40;;;;;;4932323;28;46292;-59
2022/05/03 05:35:54;;;;;;;1.65;1.55;;;21.10;47.40;;;;;;4955805;28;46721;-57
2022/05/03 05:38:19;;;;;;;2.17;1.98;;;21.10;47.40;;;;;;4957584;28;44768;-59
2022/05/03 05:40:46;;;;;;;1.60;1.35;;;21.10;48.00;;;;;;4938906;28;44821;-57
2022/05/03 05:43:12;;;;;;;2.00;1.90;;;21.10;47.50;;;;;;4957792;28;45388;-60
2022/05/03 05:45:38;;;;;;;1.45;1.35;;;21.10;47.50;;;;;;4934726;28;46948;-59
2022/05/03 05:48:04;;;;;;;1.40;1.30;;;21.10;47.40;;;;;;4914391;28;45674;-59
2022/05/03 05:50:30;;;;;;;2.17;1.88;;;21.10;47.50;;;;;;4956832;28;45572;-61
2022/05/03 05:55:42;;;;;;;2.08;1.83;;;21.00;47.50;;;;;;4956255;28;44946;-60
2022/05/03 05:58:08;;;;;;;1.95;1.77;;;21.10;47.60;;;;;;4923686;28;45814;-59
2022/05/03 06:00:34;;;;;;;2.73;1.53;;;21.10;47.60;;;;;;4956465;28;45351;-60
2022/05/03 06:02:59;;;;;;;1.98;1.77;;;21.10;47.60;;;;;;4956472;28;45240;-60
2022/05/03 06:05:25;;;;;;;1.58;1.48;;;21.10;47.60;;;;;;4952311;28;45521;-59
2022/05/03 06:07:51;;;;;;;1.70;1.60;;;21.10;47.60;;;;;;4939166;28;45382;-61
2022/05/03 06:10:16;;;;;;;1.55;1.45;;;21.10;47.60;;;;;;4946334;28;45653;-60
2022/05/03 06:12:42;;;;;;;1.70;1.60;;;21.10;47.60;;;;;;4956074;28;45231;-60
2022/05/03 06:15:08;;;;;;;1.98;1.70;;;21.10;47.50;;;;;;4957324;28;46179;-60
2022/05/03 06:17:34;;;;;;;1.70;1.58;;;21.10;47.50;;;;;;4938859;28;45655;-60
2022/05/03 06:20:00;;;;;;;1.70;1.60;;;21.20;47.50;;;;;;4932092;28;45624;-61
2022/05/03 06:22:26;;;;;;;1.55;1.45;;;21.10;47.50;;;;;;4922376;28;45783;-61
2022/05/03 06:24:52;;;;;;;1.75;1.65;;;21.20;47.50;;;;;;4931543;28;45608;-60
2022/05/03 06:27:17;;;;;;;1.77;1.48;;;21.10;47.50;;;;;;4923610;28;46329;-60
2022/05/03 06:29:43;;;;;;;1.60;1.50;;;21.10;47.50;;;;;;4948165;28;45226;-60
2022/05/03 06:32:10;;;;;;;2.08;1.88;;;21.10;47.60;;;;;;4925391;28;45835;-60
2022/05/03 06:34:39;;;;;;;1.80;1.70;;;21.10;47.60;;;;;;4918810;28;45674;-60
2022/05/03 06:37:05;;;;;;;1.85;1.75;;;21.10;47.60;;;;;;4914803;28;44779;-59
2022/05/03 06:39:31;;;;;;;1.50;1.40;;;21.20;47.60;;;;;;4932927;28;45352;-59
2022/05/03 06:41:56;;;;;;;1.77;1.67;;;21.20;47.60;;;;;;4930373;28;45085;-61
2022/05/03 06:44:22;;;;;;;1.90;1.70;;;21.20;47.50;;;;;;4931849;28;46546;-61
2022/05/03 06:46:49;;;;;;;2.00;1.90;;;21.20;47.50;;;;;;4932463;28;45716;-60
2022/05/03 06:49:17;;;;;;;1.80;1.70;;;21.20;47.40;;;;;;4948305;28;45745;-61
2022/05/03 06:51:43;;;;;;;1.60;1.50;;;21.20;47.40;;;;;;4932384;28;45179;-61
2022/05/03 06:54:08;;;;;;;2.00;1.80;;;21.20;47.40;;;;;;4931896;28;45599;-61
2022/05/03 06:56:37;;;;;;;1.77;1.67;;;21.20;47.40;;;;;;4919160;28;45584;-60
2022/05/03 06:59:07;;;;;;;1.60;1.50;;;21.20;47.40;;;;;;4945331;28;45884;-61
2022/05/03 07:01:32;;;;;;;3.35;1.88;;;21.30;47.40;;;;;;4926405;28;45726;-60
2022/05/03 07:03:58;;;;;;;1.67;1.58;;;21.30;47.30;;;;;;4927363;28;45863;-59
2022/05/03 07:06:23;;;;;;;2.10;1.90;;;21.30;47.30;;;;;;4914255;28;45019;-61
2022/05/03 07:08:49;;;;;;;1.42;1.33;;;21.30;47.20;;;;;;4922193;28;45857;-60
2022/05/03 07:11:15;;;;;;;1.95;1.75;;;21.30;47.20;;;;;;4913699;28;46089;-61
2022/05/03 07:13:41;;;;;;;2.05;1.92;;;21.30;47.20;;;;;;4931591;28;46380;-60
2022/05/03 07:16:06;;;;;;;1.60;1.48;;;21.40;47.30;;;;;;4936333;28;45289;-61
2022/05/03 07:24:00;;;;;;;1.63;1.52;;;21.40;47.80;;;;;;4934825;28;46252;-59
2022/05/03 07:26:26;;;;;;;1.67;1.58;;;21.40;47.20;;;;;;4916781;28;45588;-61
2022/05/03 07:28:52;;;;;;;2.97;1.92;;;21.40;47.20;;;;;;4914308;28;45225;-59
2022/05/03 07:31:18;;;;;;;1.45;1.35;;;21.40;47.20;;;;;;4925026;28;46292;-62
2022/05/03 07:33:44;;;;;;;1.52;1.42;;;21.40;47.20;;;;;;4929642;28;46425;-60
2022/05/03 07:36:10;;;;;;;1.40;1.30;;;21.40;47.20;;;;;;4932814;28;45250;-60
2022/05/03 07:38:35;;;;;;;1.60;1.50;;;21.40;47.20;;;;;;4914456;28;45285;-58
2022/05/03 07:41:01;;;;;;;1.45;1.35;;;21.40;47.20;;;;;;4939158;28;45763;-60
2022/05/03 07:43:27;;;;;;;1.38;1.27;;;21.40;47.20;;;;;;4933880;28;46511;-58
2022/05/03 07:45:52;;;;;;;1.95;1.77;;;21.30;47.20;;;;;;4916637;28;45398;-60
2022/05/03 07:48:18;;;;;;;1.50;1.40;;;21.40;47.30;;;;;;4933102;28;45197;-59
2022/05/03 07:50:44;;;;;;;1.52;1.42;;;21.40;47.30;;;;;;4914974;28;46254;-59
2022/05/03 07:53:10;;;;;;;2.50;2.00;;;21.40;47.30;;;;;;4927856;28;46476;-58
2022/05/03 07:55:36;;;;;;;1.50;1.40;;;21.40;47.30;;;;;;4926964;28;45734;-60
2022/05/03 07:58:02;;;;;;;1.70;1.60;;;21.40;47.30;;;;;;4931716;28;45772;-60
2022/05/03 08:00:27;;;;;;;1.70;1.60;;;21.40;47.30;;;;;;4922457;28;45814;-60
2022/05/03 08:02:53;;;;;;;1.90;1.70;;;21.30;47.40;;;;;;4931657;28;47414;-60
2022/05/03 08:05:18;;;;;;;1.40;1.30;;;21.30;47.30;;;;;;4932551;28;45242;-58
2022/05/03 08:07:44;;;;;;;1.48;1.38;;;21.30;47.30;;;;;;4951015;28;45383;-58
2022/05/03 08:10:10;;;;;;;1.70;1.60;;;21.30;47.60;;;;;;4902857;28;45312;-59
2022/05/03 08:12:36;;;;;;;1.67;1.50;;;21.40;47.40;;;;;;4917614;28;46499;-60
2022/05/03 08:15:04;;;;;;;1.88;1.58;;;21.40;47.40;;;;;;4933217;28;46190;-59
2022/05/03 08:17:30;;;;;;;1.50;1.40;;;21.40;47.30;;;;;;4950723;28;44842;-60
2022/05/03 08:19:56;;;;;;;1.52;1.33;;;21.40;47.30;;;;;;4950336;28;45887;-59
2022/05/03 08:22:22;;;;;;;1.50;1.40;;;21.40;47.30;;;;;;4950929;28;46709;-59
2022/05/03 08:24:47;;;;;;;2.03;1.80;;;21.40;47.30;;;;;;4916311;28;44782;-60
2022/05/03 08:27:16;;;;;;;1.33;1.23;;;21.40;47.40;;;;;;4926762;28;45626;-60
2022/05/03 08:29:41;;;;;;;1.52;1.40;;;21.40;47.30;;;;;;4933891;28;45619;-59
2022/05/03 08:32:09;;;;;;;1.65;1.55;;;21.40;47.30;;;;;;4934184;28;45746;-59
2022/05/03 08:34:34;;;;;;;1.70;1.60;;;21.40;47.30;;;;;;4934732;28;45620;-58
2022/05/03 08:42:29;;;;;;;1.60;1.50;;;21.40;47.30;;;;;;4951967;28;46289;-61
2022/05/03 08:44:56;;;;;;;1.52;1.42;;;21.40;47.30;;;;;;4932078;28;45569;-61
2022/05/03 08:47:22;;;;;;;1.67;1.58;;;21.40;47.30;;;;;;4924027;28;45607;-59
2022/05/03 08:49:59;;;;;;;1.58;1.48;;;21.40;47.30;;;;;;4939468;28;45929;-59
2022/05/03 08:52:27;;;;;;;1.50;1.40;;;21.40;47.30;;;;;;4932766;28;47619;-61
2022/05/03 08:54:55;;;;;;;1.50;1.40;;;21.40;47.30;;;;;;4942072;28;45570;-58
2022/05/03 08:57:20;;;;;;;1.60;1.50;;;21.50;47.20;;;;;;4904460;28;45259;-60
2022/05/03 08:59:47;;;;;;;1.67;1.58;;;21.40;47.30;;;;;;4917230;28;45766;-59
2022/05/03 09:02:13;;;;;;;1.40;1.30;;;21.40;47.30;;;;;;4927090;28;45581;-60
2022/05/03 09:04:39;;;;;;;1.55;1.45;;;21.40;47.30;;;;;;4929271;28;45731;-58
2022/05/03 09:07:19;;;;;;;1.60;1.50;;;21.40;47.30;;;;;;4913931;28;45162;-59
2022/05/03 09:09:45;;;;;;;1.52;1.42;;;21.50;47.80;;;;;;4931799;28;45741;-59
2022/05/03 09:12:31;;;;;;;1.58;1.48;;;21.40;47.20;;;;;;4930101;28;45780;-59
2022/05/03 09:14:59;;;;;;;1.52;1.40;;;21.50;47.30;;;;;;4932631;28;45272;-59
2022/05/03 09:17:38;;;;;;;1.40;1.30;;;21.50;47.30;;;;;;4932965;28;45707;-62
2022/05/03 09:25:58;;;;;;;1.48;1.38;;;21.50;47.20;;;;;;4910821;28;46264;-60
2022/05/03 09:28:23;;;;;;;1.60;1.50;;;21.50;47.20;;;;;;4921631;28;45166;-59
2022/05/03 09:30:51;;;;;;;1.73;1.63;;;21.50;47.20;;;;;;4920049;28;44996;-59
2022/05/03 09:33:25;;;;;;;1.35;1.25;;;21.50;47.20;;;;;;4920420;28;46497;-59
2022/05/03 09:35:51;;;;;;;1.80;1.42;;;21.50;47.20;;;;;;4884026;28;47226;-59
2022/05/03 09:38:17;;;;;;;1.42;1.33;;;21.50;47.20;;;;;;4938742;28;45295;-57
2022/05/03 09:40:46;;;;;;;1.58;1.48;;;21.50;47.20;;;;;;4919107;28;45868;-60
2022/05/03 09:43:13;;;;;;;1.70;1.60;;;21.50;47.20;;;;;;4906218;28;46521;-59
2022/05/03 09:45:38;;;;;;;1.45;1.35;;;21.50;47.10;;;;;;4936034;28;46045;-59
2022/05/03 09:48:05;;;;;;;1.95;1.20;;;21.50;47.10;;;;;;4913581;28;46067;-59
2022/05/03 09:50:33;;;;;;;1.48;1.38;;;21.50;47.10;;;;;;4917226;28;45156;-59
2022/05/03 09:53:10;;;;;;;1.40;1.30;;;21.60;47.20;;;;;;4916295;28;47195;-58
2022/05/03 09:55:37;;;;;;;1.60;1.40;;;21.60;47.20;;;;;;4912082;28;46980;-60
2022/05/03 09:58:09;;;;;;;1.40;1.30;;;21.60;47.20;;;;;;4914856;28;45820;-58
2022/05/03 10:00:36;;;;;;;2.03;1.83;;;21.60;47.20;;;;;;4913832;28;45656;-59
2022/05/03 10:03:03;;;;;;;1.48;1.38;;;21.60;47.20;;;;;;4924464;28;45506;-61
2022/05/03 10:05:29;;;;;;;1.60;1.50;;;21.60;47.20;;;;;;4948740;28;45919;-61
2022/05/03 10:07:54;;;;;;;1.73;1.50;;;21.60;47.10;;;;;;4948296;28;45104;-59
2022/05/03 10:10:22;;;;;;;1.55;1.45;;;21.60;47.10;;;;;;4928039;28;45297;-60
2022/05/03 10:12:49;;;;;;;1.40;1.30;;;21.60;47.10;;;;;;4956892;28;45712;-59
2022/05/03 10:21:00;;;;;;;1.35;1.25;;;21.60;47.10;;;;;;4924265;28;45252;-61
2022/05/03 10:23:28;;;;;;;1.60;1.50;;;21.60;47.10;;;;;;4935043;28;46084;-61
2022/05/03 10:25:58;;;;;;;1.50;1.40;;;21.70;47.10;;;;;;4933007;28;45451;-61
2022/05/03 10:28:24;;;;;;;1.80;1.70;;;21.70;47.00;;;;;;4953924;28;45190;-60
2022/05/03 10:31:05;;;;;;;1.60;1.50;;;21.70;47.00;;;;;;4935300;28;45110;-59
2022/05/03 10:33:31;;;;;;;1.67;1.58;;;21.70;46.90;;;;;;4952358;28;46202;-59
2022/05/03 10:35:58;;;;;;;1.80;1.70;;;21.70;47.00;;;;;;4945999;28;45532;-61
2022/05/03 10:38:38;;;;;;;1.70;1.60;;;21.80;46.90;;;;;;4914060;28;45874;-59
2022/05/03 10:41:05;;;;;;;1.65;1.55;;;21.80;46.90;;;;;;4949777;28;44738;-60
2022/05/03 10:43:33;;;;;;;1.58;1.48;;;21.80;46.90;;;;;;4952236;28;45808;-61
2022/05/03 10:46:11;;;;;;;1.70;1.60;;;21.80;46.80;;;;;;4934296;28;46229;-62
2022/05/03 10:48:41;;;;;;;1.50;1.40;;;21.80;46.80;;;;;;4953118;28;45370;-61
2022/05/03 10:51:11;;;;;;;1.55;1.45;;;21.90;46.80;;;;;;4934683;28;45753;-61
2022/05/03 10:53:38;;;;;;;1.52;1.30;;;21.90;46.80;;;;;;4920103;28;45562;-61
2022/05/03 10:56:12;;;;;;;1.55;1.45;;;21.90;46.80;;;;;;4950096;28;45522;-61
2022/05/03 10:58:40;;;;;;;1.65;1.55;;;21.90;46.80;;;;;;4935012;28;45721;-60
2022/05/03 11:01:21;;;;;;;1.75;1.55;;;21.90;46.80;;;;;;4933319;28;46371;-60
2022/05/03 11:03:47;;;;;;;1.67;1.58;;;21.90;46.80;;;;;;4950412;28;45767;-60
2022/05/03 11:06:18;;;;;;;1.48;1.38;;;21.90;46.80;;;;;;4946271;28;44730;-60
2022/05/03 11:09:05;;;;;;;1.35;1.25;;;21.90;46.80;;;;;;4942297;28;46581;-61
2022/05/03 11:11:42;;;;;;;1.50;1.40;;;21.90;46.80;;;;;;4951018;28;45300;-59
2022/05/03 11:17:04;;;;;;;1.60;1.50;;;22.00;46.80;;;;;;4951191;28;45314;-61
2022/05/03 11:19:30;;;;;;;1.45;1.35;;;22.00;46.80;;;;;;4954021;28;45892;-60
2022/05/03 11:21:58;;;;;;;1.67;1.58;;;22.00;46.70;;;;;;4952659;28;46198;-60
2022/05/03 11:24:28;;;;;;;1.63;1.50;;;22.00;46.70;;;;;;4953363;28;45212;-61
2022/05/03 11:26:58;;;;;;;1.40;1.30;;;22.00;46.70;;;;;;4917173;28;44775;-60
2022/05/03 11:29:28;;;;;;;1.40;1.30;;;22.10;46.70;;;;;;4940542;28;45259;-60
2022/05/03 11:31:53;;;;;;;1.60;1.50;;;22.10;46.70;;;;;;4929028;28;45612;-60
2022/05/03 11:34:19;;;;;;;1.50;1.40;;;22.10;46.80;;;;;;4951891;28;45098;-60
2022/05/03 11:36:50;;;;;;;1.52;1.30;;;22.10;46.80;;;;;;4926657;28;45276;-60
2022/05/03 11:39:19;;;;;;;1.30;1.20;;;22.10;46.80;;;;;;4952846;28;45855;-61
2022/05/03 11:41:45;;;;;;;1.55;1.45;;;22.10;46.70;;;;;;4934640;28;45656;-61
2022/05/03 11:44:10;;;;;;;1.70;1.60;;;22.10;46.70;;;;;;4933794;28;46344;-60
2022/05/03 11:46:40;;;;;;;1.50;1.40;;;22.10;46.70;;;;;;4927080;28;45487;-60
2022/05/03 11:49:09;;;;;;;1.60;1.50;;;22.10;46.70;;;;;;4951792;28;45555;-59
2022/05/03 11:57:20;;;;;;;1.27;1.17;;;22.20;46.70;;;;;;4922233;28;45820;-61
2022/05/03 11:59:47;;;;;;;1.63;1.35;;;22.20;46.70;;;;;;4900435;28;45626;-60
2022/05/03 12:02:43;;;;;;;1.40;1.30;;;22.20;46.70;;;;;;4919900;28;45412;-60
2022/05/03 12:05:16;;;;;;;1.52;1.40;;;22.20;46.60;;;;;;4926594;28;46791;-60
2022/05/03 12:07:42;;;;;;;;;;;22.20;46.60;;;;;;4946051;28;46287;-60
2022/05/03 12:10:23;;;;;;;1.33;1.23;;;22.20;46.60;;;;;;4922421;28;45621;-60
2022/05/03 12:13:09;;;;;;;1.55;1.45;;;22.30;46.60;;;;;;4953246;28;45770;-59
2022/05/03 12:15:45;;;;;;;1.60;1.50;;;22.30;46.60;;;;;;4955073;28;46888;-61
2022/05/03 12:18:19;;;;;;;1.38;1.27;;;22.30;46.60;;;;;;4952802;28;45766;-60
2022/05/03 12:20:55;;;;;;;1.70;1.60;;;22.30;46.70;;;;;;4954880;28;45615;-59
2022/05/03 12:23:23;;;;;;;1.50;1.40;;;22.30;47.00;;;;;;4933083;28;45614;-59
2022/05/03 12:25:50;;;;;;;1.33;1.23;;;22.30;46.70;;;;;;4933078;28;45213;-59
2022/05/03 12:28:15;;;;;;;1.40;1.30;;;22.30;46.70;;;;;;4919905;28;45327;-61
2022/05/03 12:30:41;;;;;;;1.42;1.33;;;22.30;46.60;;;;;;4943502;28;45595;-61
2022/05/03 12:33:08;;;;;;;1.30;1.20;;;22.40;46.70;;;;;;4937674;28;45910;-60
2022/05/03 12:35:37;;;;;;;1.40;1.30;;;22.40;46.80;;;;;;4942973;28;46459;-59
2022/05/03 12:38:17;;;;;;;1.58;1.35;;;22.30;46.70;;;;;;4953280;28;45787;-59
2022/05/03 12:40:43;;;;;;;1.40;1.30;;;22.40;46.70;;;;;;4915762;28;45679;-60
2022/05/03 12:43:11;;;;;;;1.38;1.27;;;22.40;46.70;;;;;;4951755;28;45310;-59
2022/05/03 12:45:37;;;;;;;1.63;1.30;;;22.40;46.70;;;;;;4936926;28;45365;-61
2022/05/03 12:48:03;;;;;;;1.60;1.50;;;22.40;46.90;;;;;;4918264;28;46237;-58
2022/05/03 12:50:28;;;;;;;1.73;1.60;;;22.40;46.70;;;;;;4925213;28;44823;-60
2022/05/03 12:52:54;;;;;;;1.40;1.30;;;22.40;46.70;;;;;;4953042;28;45060;-60
2022/05/03 12:55:20;;;;;;;1.55;1.42;;;22.50;46.80;;;;;;4920501;28;46519;-61
2022/05/03 13:00:32;;;;;;;1.38;1.27;;;22.50;46.80;;;;;;4935745;28;45855;-58
2022/05/03 13:03:00;;;;;;;1.17;1.13;;;22.50;46.80;;;;;;4954351;28;45784;-60
2022/05/03 13:05:26;;;;;;;1.40;1.30;;;22.50;46.70;;;;;;4935174;28;46563;-60
2022/05/03 13:07:51;;;;;;;1.25;1.15;;;22.50;46.70;;;;;;4936360;28;45751;-61
2022/05/03 13:10:17;;;;;;;1.58;1.48;;;22.50;46.70;;;;;;4917260;28;45964;-59
2022/05/03 13:12:42;;;;;;;1.52;1.42;;;22.50;46.70;;;;;;4921061;28;44887;-59
2022/05/03 13:15:10;;;;;;;2.00;1.60;;;22.50;46.70;;;;;;4943237;28;47326;-60
2022/05/03 13:17:36;;;;;;;1.60;1.50;;;22.50;46.70;;;;;;4924077;28;45920;-60
2022/05/03 13:20:04;;;;;;;1.38;1.27;;;22.50;46.70;;;;;;4944493;28;45142;-58
2022/05/03 13:22:31;;;;;;;1.35;1.25;;;22.50;46.70;;;;;;4945145;28;45778;-60
2022/05/03 13:24:56;;;;;;;3.28;1.33;;;22.50;46.70;;;;;;4928038;28;46629;-59
2022/05/03 13:27:22;;;;;;;1.40;1.30;;;22.50;46.70;;;;;;4927369;28;45541;-59
2022/05/03 13:29:48;;;;;;;1.60;1.50;;;22.50;46.70;;;;;;4930147;28;45386;-60
2022/05/03 13:32:13;;;;;;;1.45;1.35;;;22.60;46.80;;;;;;4929566;28;45343;-60
2022/05/03 13:34:39;;;;;;;2.20;1.52;;;22.60;46.70;;;;;;4930983;28;45466;-58
2022/05/03 13:42:33;;;;;;;1.42;1.33;;;22.50;46.70;;;;;;4933617;28;45636;-60
2022/05/03 13:44:58;;;;;;;3.42;1.27;;;22.60;46.80;;;;;;4929674;28;45054;-59
2022/05/03 13:47:25;;;;;;;1.40;1.30;;;22.60;46.80;;;;;;4930001;28;45151;-60
2022/05/03 13:49:51;;;;;;;1.55;1.45;;;22.60;46.80;;;;;;4924922;28;45873;-60
2022/05/03 13:52:17;;;;;;;1.38;1.10;;;22.60;46.80;;;;;;4929131;28;45342;-60
2022/05/03 13:54:43;;;;;;;1.65;1.30;;;22.60;46.70;;;;;;4946492;28;46584;-60
2022/05/03 13:57:09;;;;;;;1.92;1.23;;;22.60;46.70;;;;;;4928758;28;45802;-60
2022/05/03 13:59:35;;;;;;;1.40;1.30;;;22.60;46.70;;;;;;4949058;28;44709;-58
2022/05/03 14:02:05;;;;;;;1.42;1.33;;;22.60;46.60;;;;;;4926214;28;45778;-60
2022/05/03 14:04:31;;;;;;;1.33;1.23;;;22.60;46.60;;;;;;4918837;28;45530;-59
2022/05/03 14:06:57;;;;;;;1.30;1.20;;;22.70;46.70;;;;;;4885977;28;45688;-59
2022/05/03 14:09:22;;;;;;;1.25;1.15;;;22.70;46.70;;;;;;4903193;28;46207;-59
2022/05/03 14:11:48;;;;;;;1.75;1.65;;;22.70;46.60;;;;;;4916253;28;45673;-60
2022/05/03 14:14:13;;;;;;;1.60;1.38;;;22.70;46.60;;;;;;4901984;28;45839;-59
2022/05/03 14:16:39;;;;;;;1.45;1.30;;;22.70;46.50;;;;;;4917930;28;45744;-60
2022/05/03 14:19:05;;;;;;;1.20;1.15;;;22.70;46.50;;;;;;4920510;28;46271;-61
2022/05/03 14:21:30;;;;;;;1.55;1.45;;;22.70;46.40;;;;;;4902355;28;45453;-59
2022/05/03 14:23:57;;;;;;;1.60;1.30;;;22.70;46.40;;;;;;4918460;28;45274;-61
2022/05/03 14:26:22;;;;;;;1.40;1.30;;;22.70;46.40;;;;;;4919798;28;45189;-61
2022/05/03 14:28:49;;;;;;;1.65;1.55;;;22.70;46.40;;;;;;4920723;28;45335;-61
2022/05/03 14:31:15;;;;;;;3.22;1.35;;;22.70;46.30;;;;;;4919182;28;45749;-61
2022/05/03 14:33:41;;;;;;;1.55;1.45;;;22.70;46.30;;;;;;4902598;28;45521;-61
2022/05/03 14:36:07;;;;;;;1.50;1.40;;;22.70;46.30;;;;;;4903265;28;46279;-60
2022/05/03 14:38:32;;;;;;;1.60;1.50;;;22.80;46.30;;;;;;4902592;28;44893;-60
2022/05/03 14:40:58;;;;;;;1.83;1.48;;;22.80;46.30;;;;;;4919825;28;45623;-59
2022/05/03 14:43:26;;;;;;;1.42;1.33;;;22.80;46.30;;;;;;4887947;28;45244;-57
2022/05/03 14:45:52;;;;;;;1.30;1.20;;;22.80;46.20;;;;;;4908003;28;46257;-60
2022/05/03 14:48:18;;;;;;;1.50;1.40;;;22.80;46.20;;;;;;4895071;28;45511;-59
2022/05/03 14:50:43;;;;;;;1.60;1.50;;;22.80;46.20;;;;;;4918877;28;45237;-60
2022/05/03 14:53:10;;;;;;;1.50;1.40;;;22.80;46.20;;;;;;4889041;28;45578;-58
2022/05/03 14:55:36;;;;;;;2.05;1.50;;;22.80;46.20;;;;;;4874478;28;45869;-59
2022/05/03 15:03:33;;;;;;;1.63;1.52;;;22.80;46.20;;;;;;4948245;28;45335;-61
2022/05/03 15:05:58;;;;;;;1.58;1.48;;;22.80;46.10;;;;;;4925866;28;45399;-60
2022/05/03 15:08:24;;;;;;;2.05;1.10;;;22.80;46.10;;;;;;4929476;28;45591;-60
2022/05/03 15:10:50;;;;;;;1.48;1.38;;;22.80;46.10;;;;;;4912761;28;45343;-60
2022/05/03 15:13:16;;;;;;;1.60;1.50;;;22.80;46.10;;;;;;4947285;28;45975;-60
2022/05/03 15:15:42;;;;;;;1.40;1.30;;;22.80;46.10;;;;;;4923301;28;45728;-59
2022/05/03 15:18:07;;;;;;;1.60;1.50;;;22.80;46.10;;;;;;4947280;28;45625;-60
2022/05/03 15:20:34;;;;;;;1.70;1.60;;;22.90;46.10;;;;;;4929484;28;45324;-61
2022/05/03 15:25:45;;;;;;;1.73;1.63;;;22.90;46.10;;;;;;4943015;28;45418;-60
2022/05/03 15:28:11;;;;;;;1.27;1.17;;;22.90;46.10;;;;;;4949023;28;45125;-59
2022/05/03 15:30:37;;;;;;;1.35;1.25;;;22.90;46.10;;;;;;4914176;28;45419;-61
2022/05/03 15:33:04;;;;;;;1.40;1.30;;;22.90;46.10;;;;;;4904241;28;45647;-61
2022/05/03 15:35:30;;;;;;;1.92;1.73;;;22.90;46.10;;;;;;4890945;28;45551;-60
2022/05/03 15:37:59;;;;;;;1.63;1.52;;;22.90;46.10;;;;;;4949784;28;44720;-60
2022/05/03 15:40:25;;;;;;;1.70;1.60;;;22.90;46.00;;;;;;4920419;28;45340;-60
2022/05/03 15:42:51;;;;;;;1.50;1.40;;;22.90;46.00;;;;;;4916644;28;45320;-60
2022/05/03 15:45:17;;;;;;;1.75;1.52;;;22.90;46.00;;;;;;4941760;28;45430;-61
2022/05/03 15:47:43;;;;;;;1.70;1.60;;;22.90;46.00;;;;;;4950800;28;45367;-60
2022/05/03 15:50:11;;;;;;;1.55;1.45;;;22.90;46.10;;;;;;4932963;28;45198;-61
2022/05/03 15:52:41;;;;;;;1.63;1.52;;;22.90;46.00;;;;;;4931700;28;45021;-61
2022/05/03 15:55:07;;;;;;;1.48;1.38;;;22.90;46.60;;;;;;4928053;28;45139;-59
2022/05/03 15:57:32;;;;;;;2.22;1.58;;;22.80;46.00;;;;;;4941811;28;45699;-60
2022/05/03 15:59:58;;;;;;;2.13;1.52;;;22.90;46.10;;;;;;4949133;28;45288;-61
2022/05/03 16:02:24;;;;;;;1.65;1.40;;;22.80;46.00;;;;;;4927296;28;45541;-60
2022/05/03 16:04:51;;;;;;;1.55;1.45;;;22.80;46.00;;;;;;4948878;28;45018;-60
2022/05/03 16:07:16;;;;;;;1.55;1.45;;;22.80;46.00;;;;;;4919821;28;45383;-58
2022/05/03 16:09:42;;;;;;;1.63;1.52;;;22.80;46.00;;;;;;4933425;28;45656;-59
2022/05/03 16:12:08;;;;;;;1.67;1.58;;;22.80;46.10;;;;;;4912130;28;45443;-60
2022/05/03 16:14:34;;;;;;;1.60;1.50;;;22.80;46.10;;;;;;4918473;28;46382;-59
2022/05/03 16:17:04;;;;;;;3.20;1.63;;;22.80;46.10;;;;;;4950111;28;45378;-60
2022/05/03 16:19:33;;;;;;;1.98;1.63;;;22.80;46.10;;;;;;4952756;28;45281;-60
2022/05/03 16:22:02;;;;;;;1.52;1.42;;;22.90;46.80;;;;;;4940509;28;46190;-60
2022/05/03 16:24:28;;;;;;;1.70;1.60;;;22.80;46.10;;;;;;4917691;28;45419;-60
2022/05/03 16:26:54;;;;;;;1.65;1.55;;;22.80;46.20;;;;;;4920881;28;44849;-61
2022/05/03 16:29:19;;;;;;;2.13;1.70;;;22.80;46.10;;;;;;4947631;28;46055;-60
2022/05/03 16:31:48;;;;;;;1.55;1.45;;;22.80;46.20;;;;;;4939148;28;46145;-60
2022/05/03 16:34:13;;;;;;;2.22;1.85;;;22.80;46.20;;;;;;4931478;28;45401;-60
2022/05/03 16:42:08;;;;;;;2.25;1.60;;;22.70;46.30;;;;;;4942484;28;45888;-59
2022/05/03 16:44:44;;;;;;;1.40;1.30;;;22.80;46.30;;;;;;4944245;28;45823;-60
2022/05/03 16:47:11;;;;;;;1.50;1.40;;;22.80;46.30;;;;;;4949664;28;45054;-61